Hesperia, Michigan
Current Conditions -  °F | °C
As of 4:34 AM on Thursday 18 Dec 2014 (Local Time) from KFFX Reporting Station
Overcast Overcast  
Wind Chill: -4°   Ceiling: 1400
Heat Index: -1°   Visibility: 10mi
Dew Point: -3°   Wind: 6mph
Humidity: 89%   Direction: 270°W
Pressure: 30.19"   Gusts: NA
Location:  43.57°N, 86.04°W
Report Text: KFFX 180934Z AUTO 27005KT 10SM OVC014 M01/M03 A3019 RMK AO2 T10101026
Loading
Personal Weather Stations






























Interactive Weather Map New forecast layout! Learn more

10-Day Weather Forecast

Advertisements
Track Severe Weather on mobile